Terminal Aerodrome Forecast
Issued by NWS

Home | Current Version | Previous Version | Text Only | Print | Product List | Glossary On
Versions: 1 2 3 4 5 6 7 8 9 10 11 12 13 14 15 16 17 18 19 20 21 22 23 24 25 26 27 28 29 30 31
000
FTUS45 KPSR 060814 AAA
TAFPHX
TAF AMD
KPHX 060814Z 0608/0706 27006KT P6SM FEW080
     FM061200 VRB03KT P6SM FEW080
     FM061500 18010KT P6SM SCT050 BKN070
     FM062000 24015G24KT P6SM SCT050 BKN080
     FM070200 25012KT P6SM -SHRA SCT050 OVC070=

USA.gov is the U.S. government's official web portal to all federal, state and local government web resources and services.